Time;durP1;ratioP1;P1;durP2;ratioP2;P2;SDS_P1;SDS_P2;PMS_P1;PMS_P2;Temp;Humidity;BMP_temperature;BMP_pressure;BME280_temperature;BME280_humidity;BME280_pressure;Samples;Min_cycle;Max_cycle;Signal;HPM_P1;HPM_P2
2023/04/06 00:01:07;;;;;;;10.23;8.60;;;;;;;5.23;85.94;99170.22;5106744;28;20214;-54
2023/04/06 00:04:23;;;;;;;9.87;8.87;;;;;;;5.24;85.70;99170.19;5108566;28;20245;-55
2023/04/06 00:07:18;;;;;;;11.10;8.97;;;;;;;5.31;86.09;99165.81;5107574;28;20198;-54
2023/04/06 00:13:14;;;;;;;9.77;8.47;;;;;;;5.24;85.57;99161.63;5106565;28;20194;-55
2023/04/06 00:19:22;;;;;;;11.87;9.93;;;;;;;5.28;85.88;99164.16;5110573;28;20202;-49
2023/04/06 00:22:14;;;;;;;10.37;9.07;;;;;;;5.25;85.64;99153.03;5106347;28;20729;-54
2023/04/06 00:25:05;;;;;;;14.17;10.17;;;;;;;5.19;85.10;99160.84;5106402;28;20229;-48
2023/04/06 00:28:16;;;;;;;10.00;9.00;;;;;;;5.03;85.02;99161.03;5111597;28;20202;-53
2023/04/06 00:31:13;;;;;;;11.60;9.17;;;;;;;4.98;85.64;99149.94;5109105;28;20186;-54
2023/04/06 00:34:16;;;;;;;9.67;8.73;;;;;;;4.91;86.15;99150.91;5109000;28;20257;-55
2023/04/06 00:40:39;;;;;;;;;;;;;;;;;;;;;
2023/04/06 00:43:24;;;;;;;11.90;9.03;;;;;;;4.58;86.67;99120.44;5107519;28;20188;-53
2023/04/06 00:46:35;;;;;;;12.67;9.70;;;;;;;4.57;87.12;99131.56;5111104;28;20195;-51
2023/04/06 00:49:28;;;;;;;12.37;9.03;;;;;;;4.60;86.80;99137.53;5109576;28;20592;-49
2023/04/06 00:52:17;;;;;;;11.40;9.03;;;;;;;4.58;87.14;99134.13;5111112;28;20186;-48
2023/04/06 00:55:18;;;;;;;13.83;9.17;;;;;;;4.55;87.49;99136.72;5107039;28;20281;-48
2023/04/06 00:58:15;;;;;;;12.73;9.43;;;;;;;4.61;86.89;99136.69;5109711;28;20200;-48
2023/04/06 01:04:23;;;;;;;12.17;9.43;;;;;;;4.67;87.14;99130.59;5105922;28;20210;-49
2023/04/06 01:10:22;;;;;;;10.93;9.17;;;;;;;4.51;87.80;99117.09;5110188;28;20651;-49
2023/04/06 01:13:19;;;;;;;11.53;9.20;;;;;;;4.52;87.85;99118.75;5110049;28;20191;-50
2023/04/06 01:19:35;;;;;;;14.37;10.00;;;;;;;4.40;87.73;99110.38;5108950;28;20204;-50
2023/04/06 01:22:33;;;;;;;10.30;8.77;;;;;;;4.35;88.84;99111.25;5108014;28;20313;-54
2023/04/06 01:28:37;;;;;;;10.73;9.37;;;;;;;4.24;88.94;99105.38;5107886;28;20198;-48
2023/04/06 01:37:38;;;;;;;11.93;9.27;;;;;;;4.21;89.62;99097.69;5107584;28;20190;-49
2023/04/06 01:40:29;;;;;;;10.07;8.80;;;;;;;4.24;89.66;99097.66;5108875;28;20198;-48
2023/04/06 01:43:35;;;;;;;10.50;8.87;;;;;;;4.13;90.16;99096.91;5107636;28;20701;-54
2023/04/06 01:46:34;;;;;;;9.77;8.77;;;;;;;4.22;89.48;99088.25;5108125;28;20194;-54
2023/04/06 01:49:23;;;;;;;10.73;9.50;;;;;;;4.20;89.37;99084.84;5103178;28;20197;-55
2023/04/06 01:52:12;;;;;;;12.47;9.67;;;;;;;4.19;89.38;99090.84;5109541;28;20195;-54
2023/04/06 01:55:23;;;;;;;10.00;8.53;;;;;;;4.23;89.78;99087.41;5107281;28;20199;-54
2023/04/06 01:58:23;;;;;;;10.77;8.80;;;;;;;4.20;89.56;99083.13;5109338;28;20198;-53
2023/04/06 02:04:21;;;;;;;11.60;9.17;;;;;;;4.14;88.92;99057.53;5104737;28;20191;-54
2023/04/06 02:07:18;;;;;;;10.33;9.23;;;;;;;4.23;88.53;99072.84;5109160;28;20194;-55
2023/04/06 02:10:17;;;;;;;10.20;8.87;;;;;;;4.23;88.34;99075.41;5107646;28;20662;-53
2023/04/06 02:13:34;;;;;;;10.07;9.03;;;;;;;4.06;89.26;99067.03;5107864;28;20735;-54
2023/04/06 02:16:38;;;;;;;9.53;8.33;;;;;;;4.06;89.55;99055.91;5106112;28;20190;-49
2023/04/06 02:19:24;;;;;;;10.77;8.80;;;;;;;4.08;88.78;99065.28;5107351;28;20222;-49
2023/04/06 02:22:23;;;;;;;11.90;8.93;;;;;;;4.15;88.85;99078.94;5107899;28;20254;-49
2023/04/06 02:25:23;;;;;;;13.30;9.67;;;;;;;4.14;89.25;99072.94;5108928;28;20201;-49
2023/04/06 02:28:39;;;;;;;10.90;9.67;;;;;;;4.12;89.33;99073.81;5108722;28;20286;-49
2023/04/06 02:35:05;;;;;;;9.77;8.77;;;;;;;4.03;89.78;99079.91;5103611;28;20199;-49
2023/04/06 02:49:35;;;;;;;15.03;10.03;;;;;;;4.06;89.68;99087.59;5107519;28;20241;-54
2023/04/06 02:52:23;;;;;;;11.40;9.73;;;;;;;4.06;89.96;99087.59;5107036;28;20186;-49
2023/04/06 02:55:19;;;;;;;11.90;9.47;;;;;;;4.03;90.38;99087.59;5107384;28;20674;-49
2023/04/06 02:58:38;;;;;;;;;;;;;;;;;;;;;
2023/04/06 03:01:22;;;;;;;16.53;10.63;;;;;;;3.91;90.80;99078.28;5105964;28;20790;-49
2023/04/06 03:07:09;;;;;;;15.77;11.07;;;;;;;3.92;91.05;99092.84;5106416;28;20198;-53
2023/04/06 03:09:54;;;;;;;15.93;12.00;;;;;;;3.93;91.14;99078.28;5108432;28;20199;-54
2023/04/06 03:12:43;;;;;;;13.03;10.30;;;;;;;3.86;90.69;99079.19;5106244;28;20190;-53
2023/04/06 03:15:42;;;;;;;12.77;10.17;;;;;;;3.97;90.93;99085.94;5108082;28;20686;-53
2023/04/06 03:18:35;;;;;;;11.70;10.10;;;;;;;3.96;90.93;99085.94;5107448;28;20190;-53
2023/04/06 03:21:08;;;;;;;16.50;10.87;;;;;;;3.86;91.33;99079.19;5106438;28;20230;-54
2023/04/06 03:23:44;;;;;;;14.53;10.83;;;;;;;3.80;91.47;99086.94;5108879;28;20652;-53
2023/04/06 03:26:20;;;;;;;14.37;10.77;;;;;;;3.79;91.66;99087.81;5103267;28;20197;-53
2023/04/06 03:28:51;;;;;;;15.93;11.37;;;;;;;3.77;92.34;99080.13;5106359;28;20277;-53
2023/04/06 03:31:22;;;;;;;17.63;11.17;;;;;;;3.79;92.05;99088.66;5106207;28;20268;-55
2023/04/06 03:34:12;;;;;;;20.57;11.67;;;;;;;3.78;92.19;99084.41;5108630;28;20219;-54
2023/04/06 03:36:45;;;;;;;15.10;11.57;;;;;;;3.72;92.51;99068.22;5101620;28;20614;-54
2023/04/06 03:39:20;;;;;;;18.93;11.97;;;;;;;3.89;92.01;99082.59;5105588;28;20226;-47
2023/04/06 03:42:08;;;;;;;16.47;11.40;;;;;;;3.87;92.38;99086.88;5104113;28;20282;-48
2023/04/06 03:45:04;;;;;;;14.93;11.10;;;;;;;3.83;91.75;99074.09;5106398;28;20218;-48
2023/04/06 03:47:46;;;;;;;18.20;11.60;;;;;;;3.91;91.56;99085.16;5110582;28;20229;-49
2023/04/06 03:50:18;;;;;;;13.23;10.90;;;;;;;3.89;91.46;99090.28;5110909;28;20230;-49
2023/04/06 03:53:02;;;;;;;18.10;12.47;;;;;;;3.95;91.53;99084.25;5091627;28;20219;-50
2023/04/06 03:55:40;;;;;;;17.03;11.93;;;;;;;3.95;91.24;99087.66;5091895;28;20219;-49
2023/04/06 03:58:21;;;;;;;15.13;11.10;;;;;;;3.95;91.35;99079.13;5091262;28;20218;-54
2023/04/06 04:01:16;;;;;;;15.10;11.33;;;;;;;4.03;92.05;99077.34;5092084;28;20314;-48
2023/04/06 04:03:50;;;;;;;14.87;10.50;;;;;;;4.08;91.56;99082.41;5091859;28;20231;-51
2023/04/06 04:06:39;;;;;;;14.07;11.07;;;;;;;4.11;91.16;99080.66;5092159;28;20223;-53
2023/04/06 04:09:13;;;;;;;14.03;10.73;;;;;;;4.22;90.33;99089.13;5091422;28;20229;-48
2023/04/06 04:12:03;;;;;;;14.03;11.00;;;;;;;4.30;89.67;99084.75;5096839;28;20225;-49
2023/04/06 04:14:50;;;;;;;14.07;10.43;;;;;;;4.42;89.55;99085.47;5110978;28;20195;-48
2023/04/06 04:17:46;;;;;;;13.30;10.37;;;;;;;4.51;88.76;99078.53;5112743;28;20201;-52
2023/04/06 04:20:24;;;;;;;15.13;10.70;;;;;;;4.48;87.41;99052.03;5110550;28;20202;-52
2023/04/06 04:23:19;;;;;;;13.60;10.17;;;;;;;4.55;87.51;99064.78;5109789;28;20713;-54
2023/04/06 04:26:06;;;;;;;13.23;10.07;;;;;;;4.67;87.46;99076.63;5090997;28;20223;-49
2023/04/06 04:29:03;;;;;;;14.23;10.40;;;;;;;4.71;87.01;99083.44;5099864;28;20337;-49
2023/04/06 04:32:08;;;;;;;13.43;10.03;;;;;;;4.78;86.23;99084.19;5108498;28;20305;-48
2023/04/06 04:41:01;;;;;;;12.17;9.20;;;;;;;4.86;85.75;99084.94;5111594;28;20194;-54
2023/04/06 04:47:21;;;;;;;12.50;9.80;;;;;;;4.90;85.72;99077.19;5111854;28;20205;-54
2023/04/06 04:53:12;;;;;;;13.60;9.60;;;;;;;5.02;84.78;99081.31;5111567;28;20207;-49
2023/04/06 04:56:14;;;;;;;14.60;9.40;;;;;;;5.04;84.99;99082.16;5110541;28;20670;-49
2023/04/06 05:02:22;;;;;;;13.40;9.17;;;;;;;5.05;84.78;99078.72;5104747;28;20203;-47
2023/04/06 05:11:45;;;;;;;14.67;9.80;;;;;;;5.13;85.05;99070.88;5110342;28;20674;-54
2023/04/06 05:14:29;;;;;;;12.87;9.27;;;;;;;5.28;84.43;99080.97;5112730;28;20567;-54
2023/04/06 05:17:28;;;;;;;10.93;8.70;;;;;;;5.34;83.45;99065.41;5111402;28;20244;-54
2023/04/06 05:26:15;;;;;;;12.40;9.40;;;;;;;6.04;81.00;99079.75;5090881;28;20336;-54
2023/04/06 05:29:06;;;;;;;13.60;8.73;;;;;;;6.25;80.64;99078.53;5068132;28;20791;-53
2023/04/06 05:31:40;;;;;;;11.63;8.63;;;;;;;6.43;79.84;99078.19;5070691;28;20285;-55
2023/04/06 05:34:16;;;;;;;9.93;8.33;;;;;;;6.58;79.33;99077.88;5070966;28;20703;-54
2023/04/06 05:36:47;;;;;;;11.33;9.37;;;;;;;6.71;79.02;99070.75;5078678;28;20638;-55
2023/04/06 05:39:20;;;;;;;9.93;8.93;;;;;;;6.86;78.78;99073.88;5079296;28;20195;-55
2023/04/06 05:49:06;;;;;;;12.00;9.40;;;;;;;8.05;74.72;99067.66;5091937;28;20663;-49
2023/04/06 05:52:22;;;;;;;12.57;8.50;;;;;;;8.43;73.19;99064.94;5087103;28;20229;-49
2023/04/06 05:54:59;;;;;;;10.83;9.20;;;;;;;9.35;71.25;99052.75;5085408;28;20651;-49
2023/04/06 05:57:49;;;;;;;12.17;8.23;;;;;;;10.76;67.01;99063.50;5077407;28;20188;-49
2023/04/06 06:00:35;;;;;;;9.67;8.67;;;;;;;11.49;64.39;99055.50;5080088;28;20200;-49
2023/04/06 06:03:15;;;;;;;10.70;8.43;;;;;;;12.90;59.54;99066.81;5080048;28;20649;-55
2023/04/06 06:06:20;;;;;;;9.30;8.40;;;;;;;14.47;53.31;99060.06;5078204;28;20191;-55
2023/04/06 06:09:11;;;;;;;9.20;8.30;;;;;;;14.59;51.03;99055.97;5076863;28;20202;-54
2023/04/06 06:11:54;;;;;;;8.27;7.47;;;;;;;14.89;49.14;99056.13;5079628;28;20196;-51
2023/04/06 06:14:40;;;;;;;8.80;8.07;;;;;;;16.02;45.71;99042.81;5074783;28;20341;-55
2023/04/06 06:17:34;;;;;;;7.93;7.33;;;;;;;16.97;41.83;99051.03;5080398;28;20282;-54
2023/04/06 06:20:20;;;;;;;8.13;7.53;;;;;;;18.01;38.50;99047.81;5078756;28;20629;-55
2023/04/06 06:23:01;;;;;;;8.80;7.83;;;;;;;18.60;36.77;99046.44;5066137;28;20211;-55
2023/04/06 06:28:38;;;;;;;8.60;7.85;;;;;;;20.39;34.10;99052.72;5067566;28;20196;-56
2023/04/06 06:31:12;;;;;;;8.15;7.53;;;;;;;21.17;32.54;99056.22;5064576;28;20282;-55
2023/04/06 06:34:03;;;;;;;11.63;8.77;;;;;;;21.05;31.63;99051.06;5068684;28;20288;-55
2023/04/06 06:36:45;;;;;;;7.63;7.07;;;;;;;20.43;31.86;99043.63;5065556;28;20690;-51
2023/04/06 06:43:05;;;;;;;;;;;;;;;;;;;;;
2023/04/06 06:45:54;;;;;;;6.90;6.40;;;;;;;20.33;32.26;99055.78;5049836;28;20609;-50
2023/04/06 06:48:22;;;;;;;6.95;6.38;;;;;;;21.07;30.63;99054.44;5065139;28;20250;-56
2023/04/06 06:50:49;;;;;;;7.72;7.15;;;;;;;21.75;29.77;99056.84;5068815;28;20223;-55
2023/04/06 06:53:17;;;;;;;7.07;6.38;;;;;;;22.16;29.41;99042.84;5067348;28;20204;-55
2023/04/06 06:55:45;;;;;;;7.55;6.93;;;;;;;21.34;29.74;99057.53;5068866;28;20249;-54
2023/04/06 06:58:12;;;;;;;8.20;7.60;;;;;;;20.49;31.12;99044.00;5068629;28;20250;-51
2023/04/06 07:00:39;;;;;;;8.38;7.78;;;;;;;21.01;30.59;99039.91;5068117;28;20196;-50
2023/04/06 07:03:07;;;;;;;8.35;7.57;;;;;;;21.05;30.15;99037.88;5068322;28;20216;-52
2023/04/06 07:05:34;;;;;;;7.32;6.65;;;;;;;21.27;30.00;99040.50;5068180;28;20192;-51
2023/04/06 07:08:01;;;;;;;8.05;7.40;;;;;;;21.24;29.74;99043.38;5066046;28;20572;-51
2023/04/06 07:13:52;;;;;;;8.50;7.90;;;;;;;21.12;30.60;99044.34;5064126;28;20279;-49
2023/04/06 07:16:32;;;;;;;8.13;7.53;;;;;;;22.05;29.54;99046.38;5057939;28;20212;-51
2023/04/06 07:19:32;;;;;;;7.57;7.07;;;;;;;22.19;28.75;99047.88;5069277;28;20273;-50
2023/04/06 07:25:07;;;;;;;7.82;7.18;;;;;;;23.29;27.64;99049.81;5109978;28;20218;-51
2023/04/06 07:28:22;;;;;;;7.82;7.10;;;;;;;22.37;28.49;99048.97;5109619;28;20202;-50
2023/04/06 07:31:37;;;;;;;;;;;;;;;;;;;;;
2023/04/06 07:37:23;;;;;;;8.25;7.60;;;;;;;24.25;27.05;99049.09;5109131;28;20202;-51
2023/04/06 07:40:31;;;;;;;7.85;7.20;;;;;;;24.78;25.82;99056.50;5109862;28;20230;-51
2023/04/06 07:49:32;;;;;;;9.70;8.90;;;;;;;24.67;25.95;99052.19;5108639;28;20277;-50
2023/04/06 07:52:23;;;;;;;9.70;9.00;;;;;;;24.63;26.10;99044.66;5109865;28;20743;-49
2023/04/06 07:55:16;;;;;;;9.93;8.82;;;;;;;24.60;26.14;99041.31;5109818;28;20252;-56
2023/04/06 07:57:44;;;;;;;9.27;8.57;;;;;;;25.24;25.39;99045.84;5107810;28;20670;-50
2023/04/06 08:00:30;;;;;;;19.25;16.60;;;;;;;25.76;25.20;99053.19;5108430;28;20206;-50
2023/04/06 08:03:20;;;;;;;10.48;9.60;;;;;;;25.65;25.09;99046.28;5105805;28;20219;-50
2023/04/06 08:05:57;;;;;;;9.00;8.20;;;;;;;23.80;26.21;99044.34;5107265;28;20198;-51
2023/04/06 08:08:36;;;;;;;9.10;8.15;;;;;;;25.05;25.11;99047.75;5106587;28;20277;-55
2023/04/06 08:11:14;;;;;;;7.82;7.13;;;;;;;26.38;23.98;99037.13;5104085;28;20583;-55
2023/04/06 08:13:56;;;;;;;8.13;7.32;;;;;;;26.09;24.00;99039.19;5105319;28;20198;-56
2023/04/06 08:16:25;;;;;;;8.57;7.88;;;;;;;26.42;24.04;99034.97;5106690;28;20221;-55
2023/04/06 08:19:24;;;;;;;10.93;9.80;;;;;;;26.03;24.02;99021.22;5108457;28;20207;-56
2023/04/06 08:25:12;;;;;;;8.07;7.53;;;;;;;25.69;24.59;99034.38;5109113;28;20218;-56
2023/04/06 08:28:23;;;;;;;9.00;8.30;;;;;;;24.45;25.71;99034.81;5109256;28;20605;-50
2023/04/06 08:31:25;;;;;;;7.85;7.28;;;;;;;23.36;26.98;99027.13;5109443;28;20187;-51
2023/04/06 08:34:23;;;;;;;8.05;7.45;;;;;;;24.58;25.73;99018.56;5112828;28;20705;-49
2023/04/06 08:37:27;;;;;;;7.88;7.28;;;;;;;24.23;26.13;99016.56;5113371;28;20191;-48
2023/04/06 08:40:30;;;;;;;8.02;7.38;;;;;;;23.39;26.86;99004.81;5113008;28;20290;-49
2023/04/06 08:43:24;;;;;;;8.98;8.27;;;;;;;23.15;27.56;99007.81;5113029;28;20194;-55
2023/04/06 08:46:39;;;;;;;8.52;7.32;;;;;;;23.58;26.89;99010.19;5112562;28;20678;-50
2023/04/06 08:53:18;;;;;;;;;;;;;;;;;;;;;
2023/04/06 08:56:18;;;;;;;7.72;6.93;;;;;;;19.72;31.64;98986.66;5106863;28;20229;-55
2023/04/06 09:02:34;;;;;;;6.82;6.43;;;;;;;20.39;31.64;98987.66;5108782;28;20199;-49
2023/04/06 09:05:30;;;;;;;7.07;6.15;;;;;;;22.33;28.82;98981.47;5112349;28;20229;-50
2023/04/06 09:08:50;;;;;;;6.13;5.72;;;;;;;23.72;26.56;98988.53;5112409;28;20229;-49
2023/04/06 09:14:54;;;;;;;6.57;6.18;;;;;;;25.15;25.43;98974.19;5110723;28;20195;-49
2023/04/06 09:21:08;;;;;;;5.18;4.78;;;;;;;23.23;26.94;98963.00;5109924;28;20203;-50
2023/04/06 09:24:25;;;;;;;5.00;4.35;;;;;;;23.91;26.29;98974.47;5071357;28;20223;-50
2023/04/06 09:27:25;;;;;;;6.07;5.68;;;;;;;24.31;25.96;98973.41;5068185;28;20200;-52
2023/04/06 09:30:27;;;;;;;4.78;4.47;;;;;;;22.65;27.08;98961.97;5071562;28;20226;-50
2023/04/06 09:33:39;;;;;;;4.07;3.88;;;;;;;20.34;29.29;98957.28;5071388;28;20199;-48
2023/04/06 09:36:22;;;;;;;4.97;3.95;;;;;;;19.01;30.91;98951.47;5053456;28;20229;-49
2023/04/06 09:39:10;;;;;;;4.57;4.28;;;;;;;18.50;32.07;98940.22;5049867;28;20303;-55
2023/04/06 09:41:43;;;;;;;4.32;4.03;;;;;;;19.79;30.81;98945.72;5050329;28;20251;-49
2023/04/06 09:44:35;;;;;;;3.70;3.50;;;;;;;21.80;28.28;98946.31;5056465;28;20342;-51
2023/04/06 09:50:21;;;;;;;4.90;4.60;;;;;;;23.13;27.33;98946.25;5068659;28;20202;-55
2023/04/06 09:53:16;;;;;;;5.40;5.00;;;;;;;22.07;28.18;98933.47;5070305;28;20200;-55
2023/04/06 09:56:07;;;;;;;5.43;5.03;;;;;;;20.10;30.36;98937.16;5070611;28;20227;-57
2023/04/06 09:59:20;;;;;;;5.82;5.43;;;;;;;18.56;32.31;98934.53;5068413;28;20636;-56
2023/04/06 10:02:17;;;;;;;5.25;4.95;;;;;;;18.00;34.43;98930.59;5070897;28;20200;-49
2023/04/06 10:05:07;;;;;;;5.85;5.35;;;;;;;17.62;35.16;98918.22;5069273;28;20212;-49
2023/04/06 10:07:44;;;;;;;5.30;4.95;;;;;;;17.02;36.78;98937.06;5069800;28;20196;-48
2023/04/06 10:10:21;;;;;;;5.30;4.90;;;;;;;16.07;37.18;98915.09;5070228;28;20602;-49
2023/04/06 10:13:07;;;;;;;5.63;5.23;;;;;;;15.94;38.19;98917.59;5071018;28;20207;-49
2023/04/06 10:15:52;;;;;;;5.83;5.43;;;;;;;15.70;39.17;98915.59;5070257;28;20203;-48
2023/04/06 10:18:50;;;;;;;10.20;6.20;;;;;;;15.86;39.34;98906.75;5070272;28;20206;-49
2023/04/06 10:21:58;;;;;;;5.80;5.40;;;;;;;15.89;38.50;98901.34;5082313;28;20226;-49
2023/04/06 10:24:44;;;;;;;5.57;5.17;;;;;;;16.06;37.85;98895.06;5108580;28;20218;-49
2023/04/06 10:27:12;;;;;;;6.83;5.37;;;;;;;16.00;38.00;98903.31;5110856;28;20202;-55
2023/04/06 10:30:06;;;;;;;4.80;4.40;;;;;;;15.95;38.30;98903.56;5110649;28;20251;-54
2023/04/06 10:32:58;;;;;;;5.40;4.90;;;;;;;15.80;37.82;98901.88;5110745;28;20230;-47
2023/04/06 10:36:01;;;;;;;6.30;5.80;;;;;;;15.25;39.75;98891.16;5110537;28;20190;-49
2023/04/06 10:38:46;;;;;;;5.63;5.03;;;;;;;15.19;40.48;98888.91;5110567;28;20277;-49
2023/04/06 10:41:14;;;;;;;5.70;5.20;;;;;;;15.06;40.47;98886.16;5110804;28;20662;-49
2023/04/06 10:43:42;;;;;;;4.80;4.50;;;;;;;14.89;40.79;98886.28;5110530;28;20203;-49
2023/04/06 10:46:11;;;;;;;5.80;5.30;;;;;;;15.09;40.79;98888.59;5110977;28;20228;-49
2023/04/06 10:48:40;;;;;;;8.00;5.43;;;;;;;15.29;40.69;98884.00;5110510;28;20650;-49
2023/04/06 10:51:14;;;;;;;5.47;5.03;;;;;;;15.19;40.96;98879.31;5110895;28;20251;-49
2023/04/06 10:53:43;;;;;;;5.40;5.10;;;;;;;15.37;39.67;98874.75;5110500;28;20225;-49
2023/04/06 10:56:12;;;;;;;5.20;4.80;;;;;;;15.46;39.03;98876.03;5109884;28;20658;-49
2023/04/06 10:58:45;;;;;;;5.10;4.67;;;;;;;15.34;39.54;98876.75;5110660;28;20591;-50
2023/04/06 11:01:12;;;;;;;5.00;4.57;;;;;;;15.09;38.98;98872.91;5110242;28;20636;-49
2023/04/06 11:03:45;;;;;;;5.20;4.63;;;;;;;15.17;39.36;98877.69;5110195;28;20190;-50
2023/04/06 11:06:19;;;;;;;5.30;4.77;;;;;;;15.18;39.09;98867.16;5110629;28;20308;-49
2023/04/06 11:08:47;;;;;;;4.93;4.53;;;;;;;15.13;39.19;98858.72;5110716;28;20645;-52
2023/04/06 11:11:18;;;;;;;4.30;4.00;;;;;;;15.04;38.96;98864.50;5110346;28;20194;-52
2023/04/06 11:13:46;;;;;;;4.50;4.20;;;;;;;15.14;40.65;98864.81;5109809;28;20187;-49
2023/04/06 11:16:20;;;;;;;5.03;4.63;;;;;;;15.08;38.18;98868.63;5110666;28;20209;-50
2023/04/06 11:22:08;;;;;;;4.13;3.83;;;;;;;15.04;38.44;98854.03;5108504;28;20237;-49
2023/04/06 11:24:36;;;;;;;4.37;4.07;;;;;;;15.13;38.58;98858.72;5110018;28;20721;-49
2023/04/06 11:27:20;;;;;;;5.83;4.77;;;;;;;15.01;39.32;98850.78;5110164;28;20199;-47
2023/04/06 11:29:57;;;;;;;5.53;4.60;;;;;;;14.84;39.77;98847.34;5109644;28;20202;-49
2023/04/06 11:32:51;;;;;;;6.70;5.17;;;;;;;14.86;40.16;98844.66;5109692;28;20201;-49
2023/04/06 11:42:04;;;;;;;45.43;7.07;;;;;;;15.03;39.15;98848.88;5108813;28;20194;-50
2023/04/06 11:50:49;;;;;;;5.23;4.77;;;;;;;14.55;39.92;98844.69;5107718;28;20203;-49
2023/04/06 11:53:51;;;;;;;;;;;;;;;;;;;;;
2023/04/06 11:56:42;;;;;;;7.53;5.17;;;;;;;14.31;40.67;98837.25;5107797;28;20206;-49
2023/04/06 11:59:32;;;;;;;6.23;5.27;;;;;;;14.26;40.52;98834.03;5109469;28;20199;-50
2023/04/06 12:02:26;;;;;;;9.40;8.07;;;;;;;14.26;41.55;98841.03;5088518;28;20226;-50
2023/04/06 12:05:01;;;;;;;8.70;5.13;;;;;;;14.18;40.21;98836.22;5088127;28;20238;-51
2023/04/06 12:07:52;;;;;;;5.90;5.40;;;;;;;14.39;40.68;98832.47;5090635;28;20242;-50
2023/04/06 12:10:38;;;;;;;5.10;4.80;;;;;;;14.39;39.72;98832.47;5092772;28;20226;-49
2023/04/06 12:13:23;;;;;;;6.10;5.10;;;;;;;14.46;40.46;98827.75;5092404;28;20591;-49
2023/04/06 12:16:20;;;;;;;5.40;4.97;;;;;;;14.62;40.18;98835.56;5091980;28;20672;-49
2023/04/06 12:19:06;;;;;;;7.53;5.50;;;;;;;14.60;40.11;98827.81;5092589;28;20667;-49
2023/04/06 12:21:57;;;;;;;5.97;5.37;;;;;;;14.53;40.41;98824.72;5098267;28;20273;-49
2023/04/06 12:24:44;;;;;;;6.70;5.20;;;;;;;14.56;40.23;98826.28;5112942;28;20211;-51
2023/04/06 12:30:34;;;;;;;5.87;5.23;;;;;;;14.59;40.43;98827.91;5111266;28;20205;-49
2023/04/06 12:33:29;;;;;;;5.50;5.10;;;;;;;14.55;40.70;98829.03;5111890;28;20285;-49
2023/04/06 12:36:24;;;;;;;5.47;4.97;;;;;;;14.65;41.15;98827.56;5091735;28;20215;-50
2023/04/06 12:39:12;;;;;;;6.27;5.77;;;;;;;14.82;40.74;98819.63;5091979;28;20229;-49
2023/04/06 12:42:02;;;;;;;6.03;5.63;;;;;;;14.98;39.62;98823.03;5091583;28;20216;-50
2023/04/06 12:44:47;;;;;;;6.73;6.13;;;;;;;15.01;40.29;98812.38;5091027;28;20231;-49
2023/04/06 12:47:33;;;;;;;8.23;6.20;;;;;;;14.80;40.09;98822.31;5110952;28;20229;-48
2023/04/06 12:50:05;;;;;;;6.17;5.67;;;;;;;14.82;40.45;98812.63;5112253;28;20214;-49
2023/04/06 12:52:59;;;;;;;6.63;6.03;;;;;;;14.81;40.22;98808.31;5111628;28;20226;-49
2023/04/06 12:55:49;;;;;;;7.23;6.63;;;;;;;14.65;40.75;98811.91;5111686;28;20195;-49
2023/04/06 12:58:39;;;;;;;7.97;7.27;;;;;;;14.58;40.83;98813.16;5112370;28;20253;-50
2023/04/06 13:01:35;;;;;;;6.77;6.00;;;;;;;14.66;40.94;98809.22;5112262;28;20234;-50
2023/04/06 13:04:35;;;;;;;6.70;6.20;;;;;;;14.75;40.67;98815.69;5112492;28;20199;-49
2023/04/06 13:07:23;;;;;;;6.97;6.27;;;;;;;14.66;40.57;98811.81;5111906;28;20198;-49
2023/04/06 13:10:14;;;;;;;7.10;6.33;;;;;;;14.58;41.02;98803.56;5110779;28;20203;-49
2023/04/06 13:12:50;;;;;;;6.53;6.03;;;;;;;14.71;40.33;98807.16;5106397;28;20649;-49
2023/04/06 13:15:30;;;;;;;7.13;6.47;;;;;;;14.74;40.28;98811.38;5108121;28;20210;-48
2023/04/06 13:17:57;;;;;;;6.60;6.10;;;;;;;14.74;40.92;98808.75;5107472;28;20210;-49
2023/04/06 13:20:43;;;;;;;6.80;6.30;;;;;;;14.78;41.00;98805.06;5101514;28;20187;-49
2023/04/06 13:23:26;;;;;;;15.67;11.87;;;;;;;14.58;41.46;98805.31;5070764;28;20587;-48
2023/04/06 13:26:17;;;;;;;21.50;14.10;;;;;;;14.46;41.47;98799.88;5066158;28;20219;-49
2023/04/06 13:29:14;;;;;;;7.53;6.83;;;;;;;14.42;41.73;98798.38;5070743;28;20199;-49
2023/04/06 13:32:03;;;;;;;5.80;5.40;;;;;;;14.14;40.59;98800.78;5071506;28;20208;-49
2023/04/06 13:37:54;;;;;;;6.33;5.87;;;;;;;13.86;41.35;98798.81;5067245;28;20196;-48
2023/04/06 13:43:50;;;;;;;16.80;14.40;;;;;;;13.86;41.71;98803.19;5070075;28;20199;-49
2023/04/06 13:46:39;;;;;;;9.33;8.53;;;;;;;13.82;42.00;98792.91;5071612;28;20216;-50
2023/04/06 13:49:35;;;;;;;8.07;7.30;;;;;;;13.78;42.00;98796.59;5071250;28;20664;-49
2023/04/06 13:52:37;;;;;;;7.10;6.50;;;;;;;13.47;42.46;98790.47;5069608;28;20254;-47
2023/04/06 14:01:43;;;;;;;6.80;6.20;;;;;;;13.32;42.36;98798.16;5067340;28;20273;-50
2023/04/06 14:04:34;;;;;;;6.23;5.63;;;;;;;13.20;42.47;98792.75;5067600;28;20231;-49
2023/04/06 14:10:13;;;;;;;8.53;5.93;;;;;;;13.36;42.44;98791.88;5069291;28;20216;-47
2023/04/06 14:12:45;;;;;;;7.27;5.57;;;;;;;13.20;41.99;98769.31;5069962;28;20253;-54
2023/04/06 14:15:24;;;;;;;8.50;5.57;;;;;;;13.21;42.82;98790.06;5070738;28;20682;-54
2023/04/06 14:17:52;;;;;;;6.07;5.67;;;;;;;13.15;42.20;98782.56;5069028;28;20231;-54
2023/04/06 14:20:26;;;;;;;5.73;5.33;;;;;;;13.16;41.63;98781.66;5063196;28;20287;-54
2023/04/06 14:23:01;;;;;;;6.17;5.67;;;;;;;13.19;41.90;98784.09;5083894;28;20227;-54
2023/04/06 14:25:31;;;;;;;5.57;5.17;;;;;;;13.17;42.08;98787.69;5088834;28;20275;-55
2023/04/06 14:28:24;;;;;;;6.30;5.00;;;;;;;13.11;42.03;98781.00;5090098;28;20707;-54
2023/04/06 14:31:23;;;;;;;6.03;5.53;;;;;;;13.14;42.13;98785.22;5089640;28;20327;-56
2023/04/06 14:34:26;;;;;;;6.43;5.93;;;;;;;13.09;42.29;98785.47;5089557;28;20203;-54
2023/04/06 14:37:12;;;;;;;6.90;6.30;;;;;;;12.97;42.01;98776.50;5090843;28;20265;-55
2023/04/06 14:40:15;;;;;;;17.83;6.00;;;;;;;13.12;42.13;98789.66;5095749;28;20230;-54
2023/04/06 14:42:56;;;;;;;7.87;6.70;;;;;;;13.20;42.11;98791.00;5109644;28;20194;-54
2023/04/06 14:45:56;;;;;;;7.37;6.17;;;;;;;13.10;42.18;98782.75;5109335;28;20279;-55
2023/04/06 14:48:32;;;;;;;7.37;5.77;;;;;;;13.15;41.86;98790.38;5109617;28;20195;-53
2023/04/06 14:51:14;;;;;;;7.00;6.40;;;;;;;13.14;42.21;98791.28;5109049;28;20194;-55
2023/04/06 14:53:55;;;;;;;6.53;5.47;;;;;;;13.23;42.00;98790.81;5108449;28;20230;-53
2023/04/06 14:56:26;;;;;;;6.37;5.77;;;;;;;13.27;41.74;98791.53;5109174;28;20650;-54
2023/04/06 14:59:04;;;;;;;6.47;5.97;;;;;;;13.19;41.40;98802.34;5108894;28;20561;-47
2023/04/06 15:01:52;;;;;;;12.50;6.77;;;;;;;13.17;42.15;98795.53;5109132;28;20690;-48
2023/04/06 15:04:53;;;;;;;7.27;6.67;;;;;;;13.19;41.77;98796.28;5108515;28;20271;-49
2023/04/06 15:07:36;;;;;;;8.00;6.33;;;;;;;13.17;41.99;98792.91;5109953;28;20301;-48
2023/04/06 15:10:24;;;;;;;6.70;6.17;;;;;;;13.12;42.13;98790.50;5109336;28;20662;-50
2023/04/06 15:13:01;;;;;;;7.00;6.33;;;;;;;13.14;42.21;98793.03;5109550;28;20198;-49
2023/04/06 15:16:14;;;;;;;7.07;5.83;;;;;;;13.12;41.72;98800.91;5109782;28;20586;-49
2023/04/06 15:19:15;;;;;;;6.53;6.00;;;;;;;13.05;41.67;98795.19;5109413;28;20197;-50
2023/04/06 15:22:24;;;;;;;5.77;5.27;;;;;;;13.00;41.30;98802.38;5107146;28;20317;-51
2023/04/06 15:25:43;;;;;;;7.87;6.07;;;;;;;12.98;41.72;98804.22;5109506;28;20559;-49
2023/04/06 15:28:15;;;;;;;6.30;5.70;;;;;;;12.95;42.09;98804.38;5108819;28;20206;-50
2023/04/06 15:30:54;;;;;;;6.97;6.20;;;;;;;12.85;42.23;98810.97;5088577;28;20602;-50
2023/04/06 15:33:54;;;;;;;6.80;6.10;;;;;;;12.86;42.26;98815.25;5089366;28;20219;-55
2023/04/06 15:36:51;;;;;;;6.40;5.90;;;;;;;12.73;42.50;98814.16;5088862;28;20219;-55
2023/04/06 15:39:46;;;;;;;7.20;5.83;;;;;;;12.64;42.18;98810.22;5084493;28;20218;-50
2023/04/06 15:42:35;;;;;;;6.27;5.77;;;;;;;12.64;42.32;98819.81;5087701;28;20227;-56
2023/04/06 15:45:13;;;;;;;6.67;6.17;;;;;;;12.49;42.86;98816.19;5087882;28;20225;-55
2023/04/06 15:48:00;;;;;;;10.10;5.50;;;;;;;12.43;42.60;98826.03;5104123;28;20619;-55
2023/04/06 15:50:33;;;;;;;12.47;6.23;;;;;;;12.44;42.13;98823.34;5104052;28;20205;-56
2023/04/06 15:53:18;;;;;;;6.10;5.70;;;;;;;12.33;42.74;98826.47;5088662;28;20231;-56
2023/04/06 15:55:55;;;;;;;6.50;6.00;;;;;;;12.35;42.36;98823.78;5088942;28;20302;-55
2023/04/06 15:58:37;;;;;;;6.67;6.17;;;;;;;12.29;42.23;98824.94;5088939;28;20237;-55